createdAt,value
2018-12-11T00:00:22.848Z,72.50
2018-12-11T00:02:51.220Z,73.50
2018-12-11T00:05:19.884Z,74.10
2018-12-11T00:07:48.241Z,73.10
2018-12-11T00:10:16.616Z,72.80
2018-12-11T00:12:45.139Z,73.60
2018-12-11T00:15:13.514Z,73.40
2018-12-11T00:17:41.871Z,73.30
2018-12-11T00:20:10.240Z,73.10
2018-12-11T00:22:38.712Z,73.40
2018-12-11T00:25:07.624Z,72.80
2018-12-11T00:27:35.963Z,72.80
2018-12-11T00:30:05.155Z,73.30
2018-12-11T00:32:33.515Z,72.90
2018-12-11T00:35:01.987Z,73.20
2018-12-11T00:37:30.424Z,72.50
2018-12-11T00:39:58.799Z,72.40
2018-12-11T00:42:27.232Z,72.90
2018-12-11T00:44:55.579Z,72.60
2018-12-11T00:47:23.943Z,72.80
2018-12-11T00:49:52.368Z,72.50
2018-12-11T00:52:21.021Z,72.80
2018-12-11T00:54:49.383Z,72.30
2018-12-11T00:57:17.736Z,72.50
2018-12-11T00:59:46.103Z,72.50
2018-12-11T01:02:14.627Z,73.10
2018-12-11T01:04:42.980Z,72.60
2018-12-11T01:07:11.336Z,73.20
2018-12-11T01:09:40.187Z,72.90
2018-12-11T01:12:08.552Z,73.00
2018-12-11T01:14:36.895Z,72.90
2018-12-11T01:17:05.247Z,73.10
2018-12-11T01:19:33.607Z,72.90
2018-12-11T01:22:02.791Z,72.80
2018-12-11T01:24:31.338Z,72.80
2018-12-11T01:27:01.085Z,73.00
2018-12-11T01:29:29.548Z,72.70
2018-12-11T01:31:57.903Z,72.30
2018-12-11T01:34:26.239Z,72.20
2018-12-11T01:36:54.748Z,72.10
2018-12-11T01:39:23.087Z,72.10
2018-12-11T01:41:51.660Z,72.50
2018-12-11T01:44:20.112Z,71.80
2018-12-11T01:46:48.452Z,71.20
2018-12-11T01:49:16.821Z,71.40
2018-12-11T01:51:45.200Z,72.00
2018-12-11T01:54:13.771Z,71.80
2018-12-11T01:56:42.529Z,70.90
2018-12-11T01:59:10.895Z,70.70
2018-12-11T02:01:39.235Z,71.20
2018-12-11T02:04:07.919Z,71.10
2018-12-11T02:06:37.207Z,71.20
2018-12-11T02:09:06.772Z,71.80
2018-12-11T02:11:35.504Z,72.00
2018-12-11T02:14:04.287Z,71.40
2018-12-11T02:16:32.755Z,71.70
2018-12-11T02:19:01.114Z,71.90
2018-12-11T02:21:29.462Z,71.60
2018-12-11T02:23:58.028Z,71.80
2018-12-11T02:26:26.415Z,71.50
2018-12-11T02:28:54.777Z,71.70
2018-12-11T02:31:23.721Z,71.70
2018-12-11T02:33:52.059Z,71.70
2018-12-11T02:36:20.672Z,71.60
2018-12-11T02:38:49.259Z,71.40
2018-12-11T02:41:17.639Z,71.60
2018-12-11T02:43:45.979Z,71.80
2018-12-11T02:46:14.338Z,72.10
2018-12-11T02:48:42.673Z,72.00
2018-12-11T02:51:11.020Z,71.20
2018-12-11T02:53:39.388Z,70.70
2018-12-11T02:56:07.753Z,71.40
2018-12-11T02:58:36.099Z,71.70
2018-12-11T03:01:04.481Z,70.30
2018-12-11T03:03:33.080Z,70.30
2018-12-11T03:06:01.463Z,70.20
2018-12-11T03:08:30.233Z,70.40
2018-12-11T03:10:58.610Z,70.60
2018-12-11T03:13:27.041Z,70.10
2018-12-11T03:15:55.556Z,70.10
2018-12-11T03:18:24.055Z,69.70
2018-12-11T03:20:52.396Z,69.60
2018-12-11T03:23:20.759Z,68.70
2018-12-11T03:25:49.109Z,69.40
2018-12-11T03:28:17.456Z,68.50
2018-12-11T03:30:45.803Z,69.00
2018-12-11T03:33:14.268Z,68.60
2018-12-11T03:35:42.603Z,69.00
2018-12-11T03:38:10.959Z,68.80
2018-12-11T03:40:39.331Z,68.50
2018-12-11T03:43:07.844Z,69.30
2018-12-11T03:45:36.206Z,68.90
2018-12-11T03:48:05.380Z,68.20
2018-12-11T03:50:33.926Z,67.90
2018-12-11T03:53:02.319Z,68.50
2018-12-11T03:55:30.902Z,68.70
2018-12-11T03:57:59.509Z,68.70
2018-12-11T04:00:27.947Z,69.60
2018-12-11T04:02:56.332Z,68.90
2018-12-11T04:05:24.684Z,68.90
2018-12-11T04:07:53.069Z,68.70
2018-12-11T04:10:21.514Z,69.40
2018-12-11T04:12:49.861Z,68.60
2018-12-11T04:15:18.220Z,68.20
2018-12-11T04:17:46.568Z,68.50
2018-12-11T04:20:14.933Z,69.00
2018-12-11T04:22:49.882Z,69.00
2018-12-11T04:25:18.249Z,68.70
2018-12-11T04:27:46.680Z,69.00
2018-12-11T04:30:15.325Z,69.10
2018-12-11T04:32:43.652Z,68.70
2018-12-11T04:35:12.003Z,68.60
2018-12-11T04:37:40.363Z,68.70
2018-12-11T04:40:09.139Z,68.60
2018-12-11T04:42:38.008Z,68.40
2018-12-11T04:45:07.467Z,68.80
2018-12-11T04:47:35.820Z,68.80
2018-12-11T04:50:05.151Z,68.80
2018-12-11T04:52:33.525Z,68.70
2018-12-11T04:55:02.110Z,69.40
2018-12-11T04:57:30.497Z,69.50
2018-12-11T04:59:58.840Z,68.80
2018-12-11T05:02:27.213Z,69.10
2018-12-11T05:04:55.580Z,69.30
2018-12-11T05:07:23.923Z,69.70
2018-12-11T05:09:52.341Z,69.60
2018-12-11T05:12:20.963Z,69.20
2018-12-11T05:14:49.304Z,69.50
2018-12-11T05:17:17.644Z,69.80
2018-12-11T05:19:45.980Z,69.60
2018-12-11T05:22:14.406Z,69.90
2018-12-11T05:24:42.788Z,69.60
2018-12-11T05:27:14.179Z,68.90
2018-12-11T05:29:42.540Z,69.00
2018-12-11T05:32:10.887Z,69.20
2018-12-11T05:34:39.265Z,68.30
2018-12-11T05:37:07.988Z,68.50
2018-12-11T05:39:36.859Z,68.70
2018-12-11T05:42:05.239Z,68.20
2018-12-11T05:44:33.595Z,68.60
2018-12-11T05:47:01.998Z,68.70
2018-12-11T05:49:30.396Z,68.60
2018-12-11T05:51:59.390Z,68.70
2018-12-11T05:54:28.007Z,69.00
2018-12-11T05:56:56.363Z,69.40
2018-12-11T05:59:25.082Z,68.90
2018-12-11T06:01:53.771Z,69.30
2018-12-11T06:04:22.149Z,68.70
2018-12-11T06:06:51.272Z,69.10
2018-12-11T06:09:19.664Z,69.10
2018-12-11T06:11:47.998Z,69.30
2018-12-11T06:14:16.397Z,69.00
2018-12-11T06:16:45.559Z,69.10
2018-12-11T06:19:14.185Z,69.10
2018-12-11T06:21:42.555Z,70.10
2018-12-11T06:24:11.015Z,69.50
2018-12-11T06:26:40.075Z,69.30
2018-12-11T06:29:08.451Z,69.60
2018-12-11T06:31:36.810Z,69.50
2018-12-11T06:34:05.184Z,69.20
2018-12-11T06:36:33.861Z,69.20
2018-12-11T06:39:02.555Z,69.10
2018-12-11T06:41:31.066Z,69.30
2018-12-11T06:43:59.399Z,69.30
2018-12-11T06:46:28.047Z,70.30
2018-12-11T06:48:56.611Z,71.10
2018-12-11T06:51:24.974Z,70.10
2018-12-11T06:53:53.310Z,69.60
2018-12-11T06:56:21.784Z,68.90
2018-12-11T06:58:50.145Z,68.60
2018-12-11T07:01:18.967Z,68.80
2018-12-11T07:03:47.314Z,69.30
2018-12-11T07:06:15.672Z,69.50
2018-12-11T07:08:44.014Z,69.40
2018-12-11T07:11:12.632Z,69.30
2018-12-11T07:13:40.973Z,69.40
2018-12-11T07:16:09.417Z,69.60
2018-12-11T07:18:37.763Z,69.40
2018-12-11T07:21:06.920Z,69.00
2018-12-11T07:23:35.259Z,69.20
2018-12-11T07:26:03.747Z,69.60
2018-12-11T07:28:32.110Z,69.50
2018-12-11T07:31:00.496Z,69.60
2018-12-11T07:33:28.969Z,69.40
2018-12-11T07:35:57.320Z,69.90
2018-12-11T07:38:25.686Z,70.10
2018-12-11T07:40:54.027Z,70.10
2018-12-11T07:43:29.124Z,69.80
2018-12-11T07:45:57.555Z,69.80
2018-12-11T07:48:26.015Z,69.80
2018-12-11T07:50:54.350Z,69.90
2018-12-11T07:53:22.733Z,70.70
2018-12-11T07:55:51.688Z,70.80
2018-12-11T07:58:20.046Z,70.90
2018-12-11T08:00:48.386Z,70.70
2018-12-11T08:03:16.988Z,70.40
2018-12-11T08:05:46.171Z,70.30
2018-12-11T08:08:17.696Z,70.60
2018-12-11T08:10:46.123Z,70.50
2018-12-11T08:13:14.735Z,70.30
2018-12-11T08:15:43.276Z,70.30
2018-12-11T08:18:11.645Z,70.50
2018-12-11T08:20:40.046Z,69.70
2018-12-11T08:23:08.388Z,69.40
2018-12-11T08:25:36.754Z,69.90
2018-12-11T08:28:05.134Z,69.40
2018-12-11T08:30:33.842Z,69.60
2018-12-11T08:33:02.224Z,69.40
2018-12-11T08:35:30.663Z,69.60
2018-12-11T08:37:59.063Z,69.50
2018-12-11T08:40:27.436Z,70.00
2018-12-11T08:42:55.928Z,69.70
2018-12-11T08:45:24.307Z,70.20
2018-12-11T08:47:59.357Z,69.80
2018-12-11T08:50:27.730Z,69.80
2018-12-11T08:52:56.235Z,69.90
2018-12-11T08:55:24.621Z,70.10
2018-12-11T08:57:52.986Z,70.10
2018-12-11T09:00:21.319Z,69.70
2018-12-11T09:02:49.699Z,70.10
2018-12-11T09:05:18.156Z,70.10
2018-12-11T09:07:46.516Z,69.70
2018-12-11T09:10:15.111Z,69.30
2018-12-11T09:12:43.576Z,69.00
2018-12-11T09:15:13.096Z,69.20
2018-12-11T09:17:42.221Z,69.40
2018-12-11T09:20:10.760Z,70.00
2018-12-11T09:22:39.136Z,69.90
2018-12-11T09:25:07.797Z,70.20
2018-12-11T09:27:36.157Z,70.50
2018-12-11T09:30:05.818Z,70.60
2018-12-11T09:32:34.324Z,70.70
2018-12-11T09:35:03.099Z,70.70
2018-12-11T09:37:31.598Z,71.70
2018-12-11T09:39:59.948Z,71.50
2018-12-11T09:42:28.536Z,71.90
2018-12-11T09:44:56.875Z,72.80
2018-12-11T09:47:25.379Z,73.30
2018-12-11T09:49:54.108Z,73.50
2018-12-11T09:52:22.474Z,74.40
2018-12-11T09:54:51.448Z,74.90
2018-12-11T09:57:19.895Z,74.80
2018-12-11T09:59:48.275Z,74.10
2018-12-11T10:02:16.771Z,74.30
2018-12-11T10:04:46.019Z,74.10
2018-12-11T10:07:14.499Z,75.00
2018-12-11T10:09:42.944Z,75.30
2018-12-11T10:12:11.501Z,75.70
2018-12-11T10:14:39.878Z,74.40
2018-12-11T10:17:08.249Z,74.30
2018-12-11T10:19:36.971Z,74.40
2018-12-11T10:22:05.744Z,73.30
2018-12-11T10:24:34.104Z,73.30
2018-12-11T10:27:03.279Z,73.40
2018-12-11T10:29:31.643Z,73.30
2018-12-11T10:32:00.621Z,73.00
2018-12-11T10:34:29.827Z,73.10
2018-12-11T10:36:58.774Z,72.00
2018-12-11T10:39:27.402Z,72.10
2018-12-11T10:41:55.827Z,72.10
2018-12-11T10:44:24.163Z,71.30
2018-12-11T10:46:53.212Z,71.70
2018-12-11T10:49:21.591Z,70.40
2018-12-11T10:51:49.956Z,69.90
2018-12-11T10:54:18.349Z,68.30
2018-12-11T10:56:46.839Z,68.30
2018-12-11T10:59:15.419Z,68.10
2018-12-11T11:01:46.800Z,68.20
2018-12-11T11:04:15.473Z,68.30
2018-12-11T11:06:44.236Z,69.00
2018-12-11T11:09:12.583Z,68.80
2018-12-11T11:11:41.973Z,68.90
2018-12-11T11:14:10.752Z,69.60
2018-12-11T11:16:39.211Z,69.00
2018-12-11T11:19:07.556Z,69.40
2018-12-11T11:21:35.931Z,69.40
2018-12-11T11:24:04.288Z,69.80
2018-12-11T11:26:32.695Z,69.60
2018-12-11T11:29:01.044Z,69.30
2018-12-11T11:31:29.398Z,70.00
2018-12-11T11:33:58.678Z,70.30
2018-12-11T11:36:27.188Z,70.40
2018-12-11T11:38:55.562Z,70.30
2018-12-11T11:41:24.281Z,69.90
2018-12-11T11:43:52.720Z,69.10
2018-12-11T11:46:21.055Z,68.90
2018-12-11T11:48:49.590Z,69.30
2018-12-11T11:51:17.955Z,69.40
2018-12-11T11:53:46.339Z,68.40
2018-12-11T11:56:14.784Z,69.90
2018-12-11T11:58:43.379Z,70.00
2018-12-11T12:01:11.835Z,69.80
2018-12-11T12:03:40.256Z,70.70
2018-12-11T12:06:08.809Z,70.00
2018-12-11T12:08:37.188Z,69.80
2018-12-11T12:11:05.555Z,70.50
2018-12-11T12:13:33.974Z,70.70
2018-12-11T12:16:02.427Z,71.00
2018-12-11T12:18:30.888Z,70.50
2018-12-11T12:20:59.251Z,69.80
2018-12-11T12:23:28.204Z,69.20
2018-12-11T12:25:56.549Z,69.30
2018-12-11T12:28:24.983Z,69.50
2018-12-11T12:30:54.967Z,68.50
2018-12-11T12:33:23.339Z,69.80
2018-12-11T12:35:51.747Z,70.00
2018-12-11T12:38:20.256Z,69.40
2018-12-11T12:40:48.637Z,69.50
2018-12-11T12:43:17.056Z,69.60
2018-12-11T12:45:45.435Z,69.30
2018-12-11T12:48:13.883Z,69.50
2018-12-11T12:50:42.346Z,69.70
2018-12-11T12:53:10.748Z,69.60
2018-12-11T12:55:39.104Z,69.20
2018-12-11T12:58:07.584Z,69.20
2018-12-11T13:00:35.976Z,70.30
2018-12-11T13:03:04.444Z,69.40
2018-12-11T13:05:33.187Z,68.60
2018-12-11T13:08:01.628Z,68.20
2018-12-11T13:10:30.139Z,67.80
2018-12-11T13:12:58.707Z,68.40
2018-12-11T13:15:27.093Z,69.30
2018-12-11T13:17:55.539Z,70.20
2018-12-11T13:20:23.901Z,68.20
2018-12-11T13:22:52.247Z,68.80
2018-12-11T13:25:20.619Z,69.40
2018-12-11T13:27:49.028Z,68.90
2018-12-11T13:30:17.492Z,69.80
2018-12-11T13:32:45.836Z,70.50
2018-12-11T13:35:15.275Z,70.30
2018-12-11T13:37:43.911Z,69.80
2018-12-11T13:40:12.275Z,70.80
2018-12-11T13:42:40.628Z,70.90
2018-12-11T13:45:09.346Z,71.00
2018-12-11T13:47:37.999Z,71.60
2018-12-11T13:50:06.847Z,71.50
2018-12-11T13:52:35.834Z,72.30
2018-12-11T13:55:04.905Z,72.00
2018-12-11T13:57:33.314Z,72.50
2018-12-11T14:00:01.693Z,72.60
2018-12-11T14:02:30.040Z,71.50
2018-12-11T14:04:59.052Z,71.50
2018-12-11T14:07:27.651Z,71.80
2018-12-11T14:09:56.004Z,71.90
2018-12-11T14:12:24.361Z,71.20
2018-12-11T14:14:52.908Z,70.70
2018-12-11T14:17:21.256Z,70.70
2018-12-11T14:19:49.587Z,70.80
2018-12-11T14:22:17.949Z,71.00
2018-12-11T14:24:46.303Z,71.40
2018-12-11T14:27:15.020Z,70.20
2018-12-11T14:29:43.380Z,70.40
2018-12-11T14:32:11.854Z,70.60
2018-12-11T14:34:40.190Z,70.40
2018-12-11T14:37:08.560Z,70.90
2018-12-11T14:39:36.936Z,69.90
2018-12-11T14:42:05.307Z,70.20
2018-12-11T14:44:33.679Z,69.50
2018-12-11T14:47:02.187Z,69.10
2018-12-11T14:49:30.567Z,69.90
2018-12-11T14:51:59.168Z,69.70
2018-12-11T14:54:27.555Z,69.20
2018-12-11T14:56:55.958Z,69.00
2018-12-11T14:59:24.417Z,69.50
2018-12-11T15:01:52.872Z,69.50
2018-12-11T15:04:21.248Z,69.40
2018-12-11T15:06:49.692Z,69.70
2018-12-11T15:09:23.546Z,69.40
2018-12-11T15:11:51.894Z,71.00
2018-12-11T15:14:20.235Z,70.30
2018-12-11T15:16:48.580Z,69.50
2018-12-11T15:19:17.053Z,69.50
2018-12-11T15:21:45.443Z,70.30
2018-12-11T15:24:14.723Z,70.40
2018-12-11T15:26:43.372Z,70.30
2018-12-11T15:29:18.363Z,69.90
2018-12-11T15:31:46.872Z,70.10
2018-12-11T15:34:15.329Z,69.50
2018-12-11T15:36:43.731Z,69.80
2018-12-11T15:39:12.084Z,70.00
2018-12-11T15:41:40.462Z,69.60
2018-12-11T15:44:08.839Z,70.00
2018-12-11T15:46:37.609Z,70.40
2018-12-11T15:49:06.011Z,71.00
2018-12-11T15:51:34.695Z,71.70
2018-12-11T15:54:03.218Z,72.40
2018-12-11T15:56:31.582Z,72.60
2018-12-11T15:58:59.939Z,73.60
2018-12-11T16:01:28.328Z,74.10
2018-12-11T16:03:56.728Z,75.50
2018-12-11T16:06:25.252Z,74.20
2018-12-11T16:08:53.604Z,74.50
2018-12-11T16:11:21.963Z,75.30
2018-12-11T16:13:50.422Z,75.60
2018-12-11T16:16:18.895Z,75.10
2018-12-11T16:18:47.375Z,74.60
2018-12-11T16:21:15.766Z,74.40
2018-12-11T16:23:44.141Z,74.80
2018-12-11T16:26:12.503Z,75.20
2018-12-11T16:28:41.080Z,76.00
2018-12-11T16:31:09.600Z,75.30
2018-12-11T16:33:38.185Z,75.80
2018-12-11T16:36:06.673Z,76.10
2018-12-11T16:38:35.099Z,77.20
2018-12-11T16:41:03.590Z,76.40
2018-12-11T16:43:31.989Z,76.20
2018-12-11T16:46:00.403Z,76.40
2018-12-11T16:48:28.788Z,77.10
2018-12-11T16:50:57.235Z,78.50
2018-12-11T16:53:25.783Z,78.10
2018-12-11T16:55:54.153Z,77.50
2018-12-11T16:58:22.501Z,77.50
2018-12-11T17:00:51.017Z,77.40
2018-12-11T17:03:19.671Z,77.70
2018-12-11T17:05:48.058Z,77.80
2018-12-11T17:08:16.527Z,77.40
2018-12-11T17:10:44.903Z,77.60
2018-12-11T17:13:13.323Z,77.90
2018-12-11T17:15:41.821Z,78.40
2018-12-11T17:18:10.187Z,77.50
2018-12-11T17:20:38.873Z,77.70
2018-12-11T17:23:07.328Z,77.90
2018-12-11T17:25:35.683Z,77.80
2018-12-11T17:28:04.176Z,77.80
2018-12-11T17:30:32.551Z,77.10
2018-12-11T17:33:00.901Z,77.80
2018-12-11T17:35:29.422Z,77.80
2018-12-11T17:37:57.842Z,78.00
2018-12-11T17:40:26.221Z,78.60
2018-12-11T17:42:54.582Z,78.70
2018-12-11T17:45:22.940Z,78.90
2018-12-11T17:47:51.324Z,79.30
2018-12-11T17:50:19.699Z,79.80
2018-12-11T17:52:48.064Z,79.80
2018-12-11T17:55:16.526Z,80.60
2018-12-11T17:57:44.924Z,80.00
2018-12-11T18:00:13.999Z,80.50
2018-12-11T18:02:42.875Z,80.30
2018-12-11T18:05:11.223Z,79.90
2018-12-11T18:07:39.615Z,80.30
2018-12-11T18:10:08.383Z,80.40
2018-12-11T18:12:36.724Z,80.30
2018-12-11T18:15:05.970Z,80.20
2018-12-11T18:17:34.379Z,80.40
2018-12-11T18:20:02.930Z,80.00
2018-12-11T18:22:31.314Z,79.80
2018-12-11T18:24:59.663Z,79.80
2018-12-11T18:27:28.130Z,80.60
2018-12-11T18:29:56.476Z,80.20
2018-12-11T18:32:25.157Z,80.00
2018-12-11T18:34:54.559Z,80.40
2018-12-11T18:37:23.227Z,80.00
2018-12-11T18:39:54.924Z,79.90
2018-12-11T18:42:23.450Z,80.40
2018-12-11T18:44:51.831Z,80.80
2018-12-11T18:47:20.187Z,80.30
2018-12-11T18:49:48.584Z,79.50
2018-12-11T18:52:17.030Z,79.30
2018-12-11T18:54:45.441Z,79.60
2018-12-11T18:57:13.927Z,79.40
2018-12-11T18:59:42.337Z,79.60
2018-12-11T19:02:10.716Z,80.00
2018-12-11T19:04:39.081Z,80.00
2018-12-11T19:07:07.448Z,80.30
2018-12-11T19:09:35.802Z,79.90
2018-12-11T19:12:10.863Z,80.10
2018-12-11T19:14:39.209Z,80.00
2018-12-11T19:17:08.216Z,79.90
2018-12-11T19:19:36.611Z,80.30
2018-12-11T19:22:05.091Z,79.90
2018-12-11T19:24:44.486Z,79.10
2018-12-11T19:27:13.036Z,78.50
2018-12-11T19:29:42.368Z,77.60
2018-12-11T19:32:11.087Z,77.70
2018-12-11T19:34:39.466Z,78.50
2018-12-11T19:37:07.993Z,77.70
2018-12-11T19:39:36.330Z,77.60
2018-12-11T19:42:04.703Z,78.10
2018-12-11T19:44:33.346Z,78.20
2018-12-11T19:47:01.784Z,77.50
2018-12-11T19:49:30.248Z,78.90
2018-12-11T19:51:58.599Z,78.70
2018-12-11T19:54:27.027Z,78.80
2018-12-11T19:56:55.477Z,79.50
2018-12-11T19:59:23.892Z,79.20
2018-12-11T20:01:52.243Z,79.30
2018-12-11T20:04:21.127Z,79.50
2018-12-11T20:06:49.726Z,78.90
2018-12-11T20:09:18.324Z,78.60
2018-12-11T20:11:53.333Z,77.30
2018-12-11T20:14:21.948Z,77.30
2018-12-11T20:16:51.477Z,77.20
2018-12-11T20:19:20.132Z,77.10
2018-12-11T20:21:48.598Z,76.90
2018-12-11T20:24:17.218Z,77.10
2018-12-11T20:26:45.780Z,77.30
2018-12-11T20:29:14.152Z,77.00
2018-12-11T20:31:42.647Z,77.30
2018-12-11T20:34:11.004Z,77.20
2018-12-11T20:36:39.394Z,76.70
2018-12-11T20:39:08.262Z,77.10
2018-12-11T20:41:36.803Z,77.00
2018-12-11T20:44:05.164Z,77.20
2018-12-11T20:46:33.553Z,77.60
2018-12-11T20:49:02.096Z,77.50
2018-12-11T20:51:30.578Z,77.30
2018-12-11T20:53:59.171Z,77.00
2018-12-11T20:56:27.645Z,76.90
2018-12-11T20:58:56.118Z,77.30
2018-12-11T21:01:24.668Z,77.60
2018-12-11T21:03:53.055Z,76.70
2018-12-11T21:06:21.453Z,76.50
2018-12-11T21:08:49.841Z,76.80
2018-12-11T21:11:18.207Z,76.60
2018-12-11T21:13:46.699Z,76.40
2018-12-11T21:16:15.110Z,76.10
2018-12-11T21:18:43.992Z,75.80
2018-12-11T21:21:12.681Z,75.40
2018-12-11T21:23:41.179Z,76.00
2018-12-11T21:26:09.560Z,76.20
2018-12-11T21:28:38.301Z,76.70
2018-12-11T21:31:06.869Z,76.80
2018-12-11T21:33:35.482Z,76.90
2018-12-11T21:36:03.941Z,77.00
2018-12-11T21:38:32.594Z,76.50
2018-12-11T21:41:00.969Z,76.20
2018-12-11T21:43:29.539Z,76.30
2018-12-11T21:45:57.918Z,76.30
2018-12-11T21:48:26.284Z,76.30
2018-12-11T21:50:54.677Z,76.40
2018-12-11T21:53:23.184Z,76.30
2018-12-11T21:55:51.583Z,77.40
2018-12-11T21:58:20.152Z,76.50
2018-12-11T22:00:48.571Z,76.80
2018-12-11T22:03:17.432Z,77.10
2018-12-11T22:05:46.133Z,77.30
2018-12-11T22:08:14.543Z,77.30
2018-12-11T22:10:42.924Z,77.90
2018-12-11T22:13:11.499Z,78.00
2018-12-11T22:15:40.115Z,78.40
2018-12-11T22:18:08.664Z,78.60
2018-12-11T22:20:37.033Z,77.90
2018-12-11T22:23:05.404Z,78.40
2018-12-11T22:25:33.883Z,77.90
2018-12-11T22:28:02.228Z,77.70
2018-12-11T22:30:30.594Z,77.90
2018-12-11T22:32:59.104Z,77.60
2018-12-11T22:35:27.529Z,77.70
2018-12-11T22:37:55.904Z,77.80
2018-12-11T22:40:24.245Z,78.00
2018-12-11T22:42:52.717Z,78.60
2018-12-11T22:45:21.303Z,77.90
2018-12-11T22:47:49.786Z,78.00
2018-12-11T22:50:18.664Z,78.70
2018-12-11T22:52:48.076Z,78.60
2018-12-11T22:55:16.531Z,78.90
2018-12-11T22:57:44.887Z,78.70
2018-12-11T23:00:13.383Z,78.10
2018-12-11T23:02:41.772Z,78.30
2018-12-11T23:05:10.600Z,77.60
2018-12-11T23:07:39.097Z,78.20
2018-12-11T23:10:07.600Z,77.60
2018-12-11T23:12:36.448Z,77.20
2018-12-11T23:15:05.900Z,77.40
2018-12-11T23:17:34.256Z,77.20
2018-12-11T23:20:02.599Z,77.80
2018-12-11T23:22:30.999Z,77.10
2018-12-11T23:24:59.724Z,76.90
2018-12-11T23:27:28.155Z,77.20
2018-12-11T23:29:56.539Z,77.80
2018-12-11T23:32:24.890Z,76.70
2018-12-11T23:34:54.509Z,76.60
2018-12-11T23:37:22.936Z,76.70
2018-12-11T23:39:51.290Z,76.90
2018-12-11T23:42:19.783Z,77.10
2018-12-11T23:44:48.145Z,76.80
2018-12-11T23:47:16.499Z,77.20
2018-12-11T23:49:44.968Z,77.00
2018-12-11T23:52:13.312Z,76.90
2018-12-11T23:54:41.712Z,76.90
2018-12-11T23:57:10.302Z,76.60
2018-12-11T23:59:38.651Z,77.20
